sensor_id;sensor_type;location;lat;lon;timestamp;temperature;humidity
12452;DHT22;6291;48.924;12.204;2022-12-07T00:04:19;3.00;99.90
12452;DHT22;6291;48.924;12.204;2022-12-07T00:09:22;3.00;99.90
12452;DHT22;6291;48.924;12.204;2022-12-07T00:14:27;3.10;99.90
12452;DHT22;6291;48.924;12.204;2022-12-07T00:19:30;3.00;99.90
12452;DHT22;6291;48.924;12.204;2022-12-07T00:24:34;2.90;99.90
12452;DHT22;6291;48.924;12.204;2022-12-07T00:29:39;1.70;99.90
12452;DHT22;6291;48.924;12.204;2022-12-07T00:34:42;2.90;99.90
12452;DHT22;6291;48.924;12.204;2022-12-07T00:39:46;3.00;99.90
12452;DHT22;6291;48.924;12.204;2022-12-07T00:44:51;2.90;99.90
12452;DHT22;6291;48.924;12.204;2022-12-07T00:49:54;3.00;99.90
12452;DHT22;6291;48.924;12.204;2022-12-07T00:54:57;3.00;99.90
12452;DHT22;6291;48.924;12.204;2022-12-07T01:00:02;2.80;99.90
12452;DHT22;6291;48.924;12.204;2022-12-07T01:05:07;2.80;99.90
12452;DHT22;6291;48.924;12.204;2022-12-07T01:10:10;2.70;99.90
12452;DHT22;6291;48.924;12.204;2022-12-07T01:15:15;2.70;99.90
12452;DHT22;6291;48.924;12.204;2022-12-07T01:20:19;1.80;99.90
12452;DHT22;6291;48.924;12.204;2022-12-07T01:25:22;2.70;99.90
12452;DHT22;6291;48.924;12.204;2022-12-07T01:30:27;2.70;99.90
12452;DHT22;6291;48.924;12.204;2022-12-07T01:35:33;2.70;99.90
12452;DHT22;6291;48.924;12.204;2022-12-07T01:40:36;2.70;99.90
12452;DHT22;6291;48.924;12.204;2022-12-07T01:45:41;2.60;99.90
12452;DHT22;6291;48.924;12.204;2022-12-07T01:50:48;2.60;99.90
12452;DHT22;6291;48.924;12.204;2022-12-07T02:01:00;2.60;99.90
12452;DHT22;6291;48.924;12.204;2022-12-07T02:06:04;2.60;99.90
12452;DHT22;6291;48.924;12.204;2022-12-07T02:11:09;2.60;99.90
12452;DHT22;6291;48.924;12.204;2022-12-07T02:16:22;2.50;99.90
12452;DHT22;6291;48.924;12.204;2022-12-07T02:26:51;2.60;99.90
12452;DHT22;6291;48.924;12.204;2022-12-07T02:32:06;2.50;99.90
12452;DHT22;6291;48.924;12.204;2022-12-07T02:37:19;2.50;99.90
12452;DHT22;6291;48.924;12.204;2022-12-07T02:42:30;2.50;99.90
12452;DHT22;6291;48.924;12.204;2022-12-07T02:47:37;2.50;99.90
12452;DHT22;6291;48.924;12.204;2022-12-07T02:52:40;2.60;99.90
12452;DHT22;6291;48.924;12.204;2022-12-07T02:57:57;2.60;99.90
12452;DHT22;6291;48.924;12.204;2022-12-07T03:03:09;2.70;99.90
12452;DHT22;6291;48.924;12.204;2022-12-07T03:08:18;2.60;99.90
12452;DHT22;6291;48.924;12.204;2022-12-07T03:13:28;2.50;99.90
12452;DHT22;6291;48.924;12.204;2022-12-07T03:18:37;2.60;99.90
12452;DHT22;6291;48.924;12.204;2022-12-07T03:23:43;2.60;99.90
12452;DHT22;6291;48.924;12.204;2022-12-07T03:28:51;2.50;99.90
12452;DHT22;6291;48.924;12.204;2022-12-07T03:34:01;2.40;99.90
12452;DHT22;6291;48.924;12.204;2022-12-07T03:39:13;2.60;99.90
12452;DHT22;6291;48.924;12.204;2022-12-07T03:49:26;2.40;99.90
12452;DHT22;6291;48.924;12.204;2022-12-07T03:54:34;2.40;99.90
12452;DHT22;6291;48.924;12.204;2022-12-07T03:59:41;2.40;99.90
12452;DHT22;6291;48.924;12.204;2022-12-07T04:09:50;2.40;99.90
12452;DHT22;6291;48.924;12.204;2022-12-07T04:14:53;2.40;99.90
12452;DHT22;6291;48.924;12.204;2022-12-07T04:19:58;2.40;99.90
12452;DHT22;6291;48.924;12.204;2022-12-07T04:25:02;2.30;99.90
12452;DHT22;6291;48.924;12.204;2022-12-07T04:30:07;2.30;99.90
12452;DHT22;6291;48.924;12.204;2022-12-07T04:35:12;2.30;99.90
12452;DHT22;6291;48.924;12.204;2022-12-07T04:40:15;2.20;99.90
12452;DHT22;6291;48.924;12.204;2022-12-07T04:50:23;2.10;99.90
12452;DHT22;6291;48.924;12.204;2022-12-07T05:15:43;2.00;99.90
12452;DHT22;6291;48.924;12.204;2022-12-07T05:25:52;1.90;99.90
12452;DHT22;6291;48.924;12.204;2022-12-07T05:30:56;1.80;99.90
12452;DHT22;6291;48.924;12.204;2022-12-07T05:36:02;1.70;99.90
12452;DHT22;6291;48.924;12.204;2022-12-07T05:41:08;1.50;99.90
12452;DHT22;6291;48.924;12.204;2022-12-07T05:46:32;1.50;99.90
12452;DHT22;6291;48.924;12.204;2022-12-07T05:56:41;1.40;99.90
12452;DHT22;6291;48.924;12.204;2022-12-07T06:01:44;1.40;99.90
12452;DHT22;6291;48.924;12.204;2022-12-07T06:06:48;1.20;99.90
12452;DHT22;6291;48.924;12.204;2022-12-07T06:17:15;1.20;99.90
12452;DHT22;6291;48.924;12.204;2022-12-07T06:32:28;1.40;99.90
12452;DHT22;6291;48.924;12.204;2022-12-07T06:37:31;1.40;99.90
12452;DHT22;6291;48.924;12.204;2022-12-07T06:42:36;1.50;99.90
12452;DHT22;6291;48.924;12.204;2022-12-07T06:47:41;1.50;99.90
12452;DHT22;6291;48.924;12.204;2022-12-07T06:52:47;1.40;99.90
12452;DHT22;6291;48.924;12.204;2022-12-07T06:57:51;1.40;99.90
12452;DHT22;6291;48.924;12.204;2022-12-07T07:02:55;1.30;99.90
12452;DHT22;6291;48.924;12.204;2022-12-07T07:07:58;1.30;99.90
12452;DHT22;6291;48.924;12.204;2022-12-07T07:13:23;1.20;99.90
12452;DHT22;6291;48.924;12.204;2022-12-07T07:18:27;1.20;99.90
12452;DHT22;6291;48.924;12.204;2022-12-07T07:23:30;1.80;99.90
12452;DHT22;6291;48.924;12.204;2022-12-07T07:28:35;1.20;99.90
12452;DHT22;6291;48.924;12.204;2022-12-07T07:33:39;1.30;99.90
12452;DHT22;6291;48.924;12.204;2022-12-07T07:38:42;1.30;99.90
12452;DHT22;6291;48.924;12.204;2022-12-07T07:58:59;1.90;99.90
12452;DHT22;6291;48.924;12.204;2022-12-07T08:04:03;2.00;99.90
12452;DHT22;6291;48.924;12.204;2022-12-07T08:09:06;2.10;99.90
12452;DHT22;6291;48.924;12.204;2022-12-07T08:14:11;2.10;99.90
12452;DHT22;6291;48.924;12.204;2022-12-07T08:19:15;2.30;99.90
12452;DHT22;6291;48.924;12.204;2022-12-07T08:24:18;2.20;99.90
12452;DHT22;6291;48.924;12.204;2022-12-07T08:29:23;2.30;99.90
12452;DHT22;6291;48.924;12.204;2022-12-07T08:34:26;2.50;99.90
12452;DHT22;6291;48.924;12.204;2022-12-07T08:39:29;2.60;99.90
12452;DHT22;6291;48.924;12.204;2022-12-07T08:44:35;2.70;99.90
12452;DHT22;6291;48.924;12.204;2022-12-07T08:49:40;2.70;99.90
12452;DHT22;6291;48.924;12.204;2022-12-07T08:54:45;2.80;99.90
12452;DHT22;6291;48.924;12.204;2022-12-07T09:04:53;2.80;99.90
12452;DHT22;6291;48.924;12.204;2022-12-07T09:15:03;3.00;99.90
12452;DHT22;6291;48.924;12.204;2022-12-07T09:20:07;3.10;99.90
12452;DHT22;6291;48.924;12.204;2022-12-07T09:25:11;3.00;99.90
12452;DHT22;6291;48.924;12.204;2022-12-07T09:30:16;3.20;99.90
12452;DHT22;6291;48.924;12.204;2022-12-07T09:35:19;3.60;99.90
12452;DHT22;6291;48.924;12.204;2022-12-07T09:40:23;3.40;99.90
12452;DHT22;6291;48.924;12.204;2022-12-07T09:45:32;3.30;99.90
12452;DHT22;6291;48.924;12.204;2022-12-07T09:50:36;3.20;99.90
12452;DHT22;6291;48.924;12.204;2022-12-07T09:55:41;3.30;99.90
12452;DHT22;6291;48.924;12.204;2022-12-07T10:00:47;3.20;99.90
12452;DHT22;6291;48.924;12.204;2022-12-07T10:05:51;3.30;99.90
12452;DHT22;6291;48.924;12.204;2022-12-07T10:10:56;3.30;99.90
12452;DHT22;6291;48.924;12.204;2022-12-07T10:16:00;3.30;99.90
12452;DHT22;6291;48.924;12.204;2022-12-07T10:21:14;3.50;99.90
12452;DHT22;6291;48.924;12.204;2022-12-07T10:26:27;3.40;99.90
12452;DHT22;6291;48.924;12.204;2022-12-07T10:31:38;3.60;99.90
12452;DHT22;6291;48.924;12.204;2022-12-07T10:36:42;3.50;99.90
12452;DHT22;6291;48.924;12.204;2022-12-07T10:41:55;3.50;99.90
12452;DHT22;6291;48.924;12.204;2022-12-07T10:47:20;3.50;99.90
12452;DHT22;6291;48.924;12.204;2022-12-07T10:58:12;3.40;99.90
12452;DHT22;6291;48.924;12.204;2022-12-07T11:03:32;3.50;99.90
12452;DHT22;6291;48.924;12.204;2022-12-07T11:08:51;3.50;99.90
12452;DHT22;6291;48.924;12.204;2022-12-07T11:14:05;3.60;99.90
12452;DHT22;6291;48.924;12.204;2022-12-07T11:19:20;3.60;99.90
12452;DHT22;6291;48.924;12.204;2022-12-07T11:24:35;3.70;99.90
12452;DHT22;6291;48.924;12.204;2022-12-07T11:30:08;3.80;99.90
12452;DHT22;6291;48.924;12.204;2022-12-07T11:35:25;3.90;99.90
12452;DHT22;6291;48.924;12.204;2022-12-07T11:40:34;3.90;99.90
12452;DHT22;6291;48.924;12.204;2022-12-07T11:45:41;3.90;99.90
12452;DHT22;6291;48.924;12.204;2022-12-07T11:50:48;4.10;99.90
12452;DHT22;6291;48.924;12.204;2022-12-07T11:55:56;3.90;99.90
12452;DHT22;6291;48.924;12.204;2022-12-07T12:01:11;4.00;99.90
12452;DHT22;6291;48.924;12.204;2022-12-07T12:06:18;4.00;99.90
12452;DHT22;6291;48.924;12.204;2022-12-07T12:11:36;3.80;99.90
12452;DHT22;6291;48.924;12.204;2022-12-07T12:17:06;4.00;99.90
12452;DHT22;6291;48.924;12.204;2022-12-07T12:22:17;4.10;99.90
12452;DHT22;6291;48.924;12.204;2022-12-07T12:27:25;4.10;99.90
12452;DHT22;6291;48.924;12.204;2022-12-07T12:32:36;3.90;99.90
12452;DHT22;6291;48.924;12.204;2022-12-07T12:37:44;3.90;99.90
12452;DHT22;6291;48.924;12.204;2022-12-07T12:47:57;3.80;99.90
12452;DHT22;6291;48.924;12.204;2022-12-07T12:53:14;3.80;99.90
12452;DHT22;6291;48.924;12.204;2022-12-07T12:58:36;3.90;99.90
12452;DHT22;6291;48.924;12.204;2022-12-07T13:03:52;3.90;99.90
12452;DHT22;6291;48.924;12.204;2022-12-07T13:08:59;3.90;99.90
12452;DHT22;6291;48.924;12.204;2022-12-07T13:14:37;3.80;99.90
12452;DHT22;6291;48.924;12.204;2022-12-07T13:25:08;3.70;99.90
12452;DHT22;6291;48.924;12.204;2022-12-07T13:30:14;3.70;99.90
12452;DHT22;6291;48.924;12.204;2022-12-07T13:35:28;3.90;99.90
12452;DHT22;6291;48.924;12.204;2022-12-07T13:40:33;3.80;99.90
12452;DHT22;6291;48.924;12.204;2022-12-07T13:45:37;3.70;99.90
12452;DHT22;6291;48.924;12.204;2022-12-07T13:50:54;3.60;99.90
12452;DHT22;6291;48.924;12.204;2022-12-07T14:01:06;3.60;99.90
12452;DHT22;6291;48.924;12.204;2022-12-07T14:06:20;3.60;99.90
12452;DHT22;6291;48.924;12.204;2022-12-07T14:11:29;3.60;99.90
12452;DHT22;6291;48.924;12.204;2022-12-07T14:16:35;3.50;99.90
12452;DHT22;6291;48.924;12.204;2022-12-07T14:21:39;3.60;99.90
12452;DHT22;6291;48.924;12.204;2022-12-07T14:26:44;3.60;99.90
12452;DHT22;6291;48.924;12.204;2022-12-07T14:31:48;3.60;99.90
12452;DHT22;6291;48.924;12.204;2022-12-07T14:36:51;3.60;99.90
12452;DHT22;6291;48.924;12.204;2022-12-07T14:41:56;3.60;99.90
12452;DHT22;6291;48.924;12.204;2022-12-07T14:46:59;3.50;99.90
12452;DHT22;6291;48.924;12.204;2022-12-07T14:52:26;3.50;99.90
12452;DHT22;6291;48.924;12.204;2022-12-07T14:57:52;3.40;99.90
12452;DHT22;6291;48.924;12.204;2022-12-07T15:02:56;3.30;99.90
12452;DHT22;6291;48.924;12.204;2022-12-07T15:08:00;3.40;99.90
12452;DHT22;6291;48.924;12.204;2022-12-07T15:18:26;3.30;99.90
12452;DHT22;6291;48.924;12.204;2022-12-07T15:23:29;3.30;99.90
12452;DHT22;6291;48.924;12.204;2022-12-07T15:28:34;3.30;99.90
12452;DHT22;6291;48.924;12.204;2022-12-07T15:33:38;3.30;99.90
12452;DHT22;6291;48.924;12.204;2022-12-07T15:38:41;3.20;99.90
12452;DHT22;6291;48.924;12.204;2022-12-07T15:44:08;3.20;99.90
12452;DHT22;6291;48.924;12.204;2022-12-07T15:49:32;3.40;99.90
12452;DHT22;6291;48.924;12.204;2022-12-07T15:54:35;3.30;99.90
12452;DHT22;6291;48.924;12.204;2022-12-07T15:59:40;3.30;99.90
12452;DHT22;6291;48.924;12.204;2022-12-07T16:04:43;3.20;99.90
12452;DHT22;6291;48.924;12.204;2022-12-07T16:09:47;3.20;99.90
12452;DHT22;6291;48.924;12.204;2022-12-07T16:14:52;3.20;99.90
12452;DHT22;6291;48.924;12.204;2022-12-07T16:19:56;3.10;99.90
12452;DHT22;6291;48.924;12.204;2022-12-07T16:24:59;3.10;99.90
12452;DHT22;6291;48.924;12.204;2022-12-07T16:30:06;3.10;99.90
12452;DHT22;6291;48.924;12.204;2022-12-07T16:35:11;3.10;99.90
12452;DHT22;6291;48.924;12.204;2022-12-07T16:40:15;3.00;99.90
12452;DHT22;6291;48.924;12.204;2022-12-07T16:45:20;2.90;99.90
12452;DHT22;6291;48.924;12.204;2022-12-07T16:50:23;2.90;99.90
12452;DHT22;6291;48.924;12.204;2022-12-07T16:55:27;2.90;99.90
12452;DHT22;6291;48.924;12.204;2022-12-07T17:00:32;2.80;99.90
12452;DHT22;6291;48.924;12.204;2022-12-07T17:05:38;2.90;99.90
12452;DHT22;6291;48.924;12.204;2022-12-07T17:10:44;2.90;99.90
12452;DHT22;6291;48.924;12.204;2022-12-07T17:15:59;2.80;99.90
12452;DHT22;6291;48.924;12.204;2022-12-07T17:21:04;2.80;99.90
12452;DHT22;6291;48.924;12.204;2022-12-07T17:31:16;2.90;99.90
12452;DHT22;6291;48.924;12.204;2022-12-07T17:36:22;2.80;99.90
12452;DHT22;6291;48.924;12.204;2022-12-07T17:41:27;2.80;99.90
12452;DHT22;6291;48.924;12.204;2022-12-07T17:46:51;2.80;99.90
12452;DHT22;6291;48.924;12.204;2022-12-07T17:51:56;2.80;99.90
12452;DHT22;6291;48.924;12.204;2022-12-07T17:57:17;2.80;99.90
12452;DHT22;6291;48.924;12.204;2022-12-07T18:02:22;2.80;99.90
12452;DHT22;6291;48.924;12.204;2022-12-07T18:07:25;2.80;99.90
12452;DHT22;6291;48.924;12.204;2022-12-07T18:12:29;2.80;99.90
12452;DHT22;6291;48.924;12.204;2022-12-07T18:22:38;2.70;99.90
12452;DHT22;6291;48.924;12.204;2022-12-07T18:27:42;2.70;99.90
12452;DHT22;6291;48.924;12.204;2022-12-07T18:32:46;2.70;99.90
12452;DHT22;6291;48.924;12.204;2022-12-07T18:37:49;2.80;99.90
12452;DHT22;6291;48.924;12.204;2022-12-07T18:42:53;2.60;99.90
12452;DHT22;6291;48.924;12.204;2022-12-07T18:47:59;2.60;99.90
12452;DHT22;6291;48.924;12.204;2022-12-07T18:53:04;2.70;99.90
12452;DHT22;6291;48.924;12.204;2022-12-07T18:58:10;2.70;99.90
12452;DHT22;6291;48.924;12.204;2022-12-07T19:03:14;2.70;99.90
12452;DHT22;6291;48.924;12.204;2022-12-07T19:08:18;2.70;99.90
12452;DHT22;6291;48.924;12.204;2022-12-07T19:13:21;2.70;99.90
12452;DHT22;6291;48.924;12.204;2022-12-07T19:23:30;2.60;99.90
12452;DHT22;6291;48.924;12.204;2022-12-07T19:28:33;2.50;99.90
12452;DHT22;6291;48.924;12.204;2022-12-07T19:33:38;2.50;99.90
12452;DHT22;6291;48.924;12.204;2022-12-07T19:38:42;2.50;99.90
12452;DHT22;6291;48.924;12.204;2022-12-07T19:43:45;2.50;99.90
12452;DHT22;6291;48.924;12.204;2022-12-07T19:48:50;2.50;99.90
12452;DHT22;6291;48.924;12.204;2022-12-07T19:53:55;2.50;99.90
12452;DHT22;6291;48.924;12.204;2022-12-07T19:59:00;2.50;99.90
12452;DHT22;6291;48.924;12.204;2022-12-07T20:04:06;2.50;99.90
12452;DHT22;6291;48.924;12.204;2022-12-07T20:09:10;2.50;99.90
12452;DHT22;6291;48.924;12.204;2022-12-07T20:14:14;2.40;99.90
12452;DHT22;6291;48.924;12.204;2022-12-07T20:19:19;2.40;99.90
12452;DHT22;6291;48.924;12.204;2022-12-07T20:24:24;2.40;99.90
12452;DHT22;6291;48.924;12.204;2022-12-07T20:29:32;2.40;99.90
12452;DHT22;6291;48.924;12.204;2022-12-07T20:34:37;2.40;99.90
12452;DHT22;6291;48.924;12.204;2022-12-07T20:39:41;2.30;99.90
12452;DHT22;6291;48.924;12.204;2022-12-07T20:44:44;2.40;99.90
12452;DHT22;6291;48.924;12.204;2022-12-07T20:49:50;2.30;99.90
12452;DHT22;6291;48.924;12.204;2022-12-07T20:54:53;2.30;99.90
12452;DHT22;6291;48.924;12.204;2022-12-07T20:59:57;2.30;99.90
12452;DHT22;6291;48.924;12.204;2022-12-07T21:10:07;2.30;99.90
12452;DHT22;6291;48.924;12.204;2022-12-07T21:15:10;2.30;99.90
12452;DHT22;6291;48.924;12.204;2022-12-07T21:20:15;2.30;99.90
12452;DHT22;6291;48.924;12.204;2022-12-07T21:25:18;2.30;99.90
12452;DHT22;6291;48.924;12.204;2022-12-07T21:30:22;2.20;99.90
12452;DHT22;6291;48.924;12.204;2022-12-07T21:35:27;2.10;99.90
12452;DHT22;6291;48.924;12.204;2022-12-07T21:40:30;2.00;99.90
12452;DHT22;6291;48.924;12.204;2022-12-07T21:45:33;1.90;99.90
12452;DHT22;6291;48.924;12.204;2022-12-07T21:50:38;1.80;99.90
12452;DHT22;6291;48.924;12.204;2022-12-07T21:55:42;1.70;99.90
12452;DHT22;6291;48.924;12.204;2022-12-07T22:00:46;1.70;99.90
12452;DHT22;6291;48.924;12.204;2022-12-07T22:05:51;1.60;99.90
12452;DHT22;6291;48.924;12.204;2022-12-07T22:10:59;1.50;99.90
12452;DHT22;6291;48.924;12.204;2022-12-07T22:21:08;1.40;99.90
12452;DHT22;6291;48.924;12.204;2022-12-07T22:26:13;1.30;99.90
12452;DHT22;6291;48.924;12.204;2022-12-07T22:31:25;1.30;99.90
12452;DHT22;6291;48.924;12.204;2022-12-07T22:36:30;1.30;99.90
12452;DHT22;6291;48.924;12.204;2022-12-07T22:41:33;1.30;99.90
12452;DHT22;6291;48.924;12.204;2022-12-07T22:46:37;1.40;99.90
12452;DHT22;6291;48.924;12.204;2022-12-07T22:51:42;1.40;99.90
12452;DHT22;6291;48.924;12.204;2022-12-07T22:56:46;1.40;99.90
12452;DHT22;6291;48.924;12.204;2022-12-07T23:01:49;1.30;99.90
12452;DHT22;6291;48.924;12.204;2022-12-07T23:06:57;1.30;99.90
12452;DHT22;6291;48.924;12.204;2022-12-07T23:12:00;1.30;99.90
12452;DHT22;6291;48.924;12.204;2022-12-07T23:17:20;1.20;99.90
12452;DHT22;6291;48.924;12.204;2022-12-07T23:22:26;1.20;99.90
12452;DHT22;6291;48.924;12.204;2022-12-07T23:27:29;1.30;99.90
12452;DHT22;6291;48.924;12.204;2022-12-07T23:32:32;1.10;99.90
12452;DHT22;6291;48.924;12.204;2022-12-07T23:37:37;1.00;99.90
12452;DHT22;6291;48.924;12.204;2022-12-07T23:42:41;1.00;99.90
12452;DHT22;6291;48.924;12.204;2022-12-07T23:47:45;1.00;99.90
12452;DHT22;6291;48.924;12.204;2022-12-07T23:52:49;1.40;99.90
12452;DHT22;6291;48.924;12.204;2022-12-07T23:57:53;0.90;99.90
